Time;durP1;ratioP1;P1;durP2;ratioP2;P2;SDS_P1;SDS_P2;PMS_P1;PMS_P2;Temp;Humidity;BMP_temperature;BMP_pressure;BME280_temperature;BME280_humidity;BME280_pressure;Samples;Min_cycle;Max_cycle;Signal;HPM_P1;HPM_P2
2022/07/08 00:01:47;;;;;;;15.88;5.95;;;24.60;99.90;;;;;;4868147;29;20028;-92
2022/07/08 00:04:14;;;;;;;18.73;5.93;;;24.70;99.90;;;;;;4864889;29;20057;-93
2022/07/08 00:06:40;;;;;;;15.45;5.93;;;24.70;99.90;;;;;;4864869;29;20041;-93
2022/07/08 00:09:10;;;;;;;17.33;6.32;;;24.70;99.90;;;;;;4865487;29;20059;-93
2022/07/08 00:11:41;;;;;;;16.25;5.50;;;24.70;99.90;;;;;;4865060;29;20033;-94
2022/07/08 00:14:10;;;;;;;18.40;6.70;;;24.70;99.90;;;;;;4880316;29;20124;-93
2022/07/08 00:16:40;;;;;;;19.17;6.10;;;24.70;99.90;;;;;;4864723;29;20037;-94
2022/07/08 00:19:08;;;;;;;18.23;6.72;;;24.70;99.90;;;;;;4864783;29;20403;-92
2022/07/08 00:21:35;;;;;;;18.85;6.18;;;24.70;99.90;;;;;;4880291;29;20040;-92
2022/07/08 00:24:01;;;;;;;21.08;6.07;;;24.60;99.90;;;;;;4864653;29;20080;-92
2022/07/08 00:26:28;;;;;;;26.33;6.53;;;24.60;99.90;;;;;;4880537;29;20098;-92
2022/07/08 00:28:55;;;;;;;20.75;6.35;;;24.60;99.90;;;;;;4864772;29;20033;-92
2022/07/08 00:31:21;;;;;;;19.40;6.25;;;24.60;99.90;;;;;;4864873;29;20029;-93
2022/07/08 00:33:48;;;;;;;19.83;6.63;;;24.60;99.90;;;;;;4880114;29;20133;-91
2022/07/08 00:36:15;;;;;;;19.73;6.85;;;24.60;99.90;;;;;;4864626;29;20037;-94
2022/07/08 00:38:42;;;;;;;21.98;6.88;;;24.50;99.90;;;;;;4864433;29;20033;-92
2022/07/08 00:41:08;;;;;;;12.07;5.95;;;24.50;99.90;;;;;;4864946;29;20025;-93
2022/07/08 00:43:39;;;;;;;16.55;6.20;;;24.60;99.90;;;;;;4880222;29;20045;-92
2022/07/08 00:46:08;;;;;;;21.52;6.90;;;24.60;99.90;;;;;;4879785;29;20045;-92
2022/07/08 00:48:36;;;;;;;16.45;6.18;;;24.60;99.90;;;;;;4864599;29;20033;-92
2022/07/08 00:51:08;;;;;;;21.15;6.35;;;24.60;99.90;;;;;;4879685;29;20041;-92
2022/07/08 00:53:38;;;;;;;24.95;6.00;;;24.60;99.90;;;;;;4879850;29;20029;-92
2022/07/08 00:56:07;;;;;;;16.27;6.47;;;24.50;99.90;;;;;;4864218;29;20072;-91
2022/07/08 00:58:34;;;;;;;20.98;6.15;;;24.50;99.90;;;;;;4879553;29;20116;-92
2022/07/08 01:01:04;;;;;;;13.27;6.05;;;24.60;99.90;;;;;;4864772;29;20060;-92
2022/07/08 01:03:30;;;;;;;11.63;5.28;;;24.50;99.90;;;;;;4860261;29;20162;-92
2022/07/08 01:05:57;;;;;;;21.10;6.15;;;24.40;99.90;;;;;;4829904;29;20058;-91
2022/07/08 01:08:24;;;;;;;15.85;6.13;;;24.30;99.90;;;;;;4830078;29;20053;-92
2022/07/08 01:10:52;;;;;;;12.90;6.70;;;24.30;99.90;;;;;;4830019;29;20030;-92
2022/07/08 01:13:19;;;;;;;18.27;6.60;;;24.30;99.90;;;;;;4829808;29;20056;-92
2022/07/08 01:15:48;;;;;;;18.25;6.45;;;24.40;99.90;;;;;;4829849;29;20029;-90
2022/07/08 01:18:22;;;;;;;18.30;6.28;;;24.30;99.90;;;;;;4829952;29;20132;-93
2022/07/08 01:20:50;;;;;;;11.10;6.13;;;24.30;99.90;;;;;;4829845;29;20038;-91
2022/07/08 01:23:17;;;;;;;16.55;5.97;;;24.40;99.90;;;;;;4829985;29;20042;-91
2022/07/08 01:25:45;;;;;;;11.15;6.35;;;24.40;99.90;;;;;;4829850;29;20037;-94
2022/07/08 01:28:13;;;;;;;16.85;6.05;;;24.40;99.90;;;;;;4829378;29;20128;-93
2022/07/08 01:30:40;;;;;;;10.25;5.95;;;24.50;99.90;;;;;;4829372;29;20037;-93
2022/07/08 01:33:07;;;;;;;16.08;6.03;;;24.60;99.90;;;;;;4829542;29;20034;-94
2022/07/08 01:35:34;;;;;;;13.45;7.00;;;24.50;99.90;;;;;;4862362;29;20555;-92
2022/07/08 01:38:01;;;;;;;15.68;6.68;;;24.50;99.90;;;;;;4864308;29;20170;-93
2022/07/08 01:40:27;;;;;;;10.57;6.18;;;24.50;99.90;;;;;;4880908;29;20033;-93
2022/07/08 01:42:54;;;;;;;15.20;6.28;;;24.40;99.90;;;;;;4867880;29;20057;-93
2022/07/08 01:45:21;;;;;;;16.08;6.75;;;24.40;99.90;;;;;;4867509;29;20401;-93
2022/07/08 01:47:47;;;;;;;16.30;6.30;;;24.30;99.90;;;;;;4867265;29;20053;-93
2022/07/08 01:50:15;;;;;;;8.30;5.70;;;24.30;99.90;;;;;;4882884;29;20033;-92
2022/07/08 01:52:41;;;;;;;13.43;6.00;;;24.20;99.90;;;;;;4867326;29;20039;-93
2022/07/08 01:55:08;;;;;;;16.48;6.78;;;24.20;99.90;;;;;;4867237;29;20029;-94
2022/07/08 01:57:35;;;;;;;17.25;6.25;;;24.20;99.90;;;;;;4867229;29;20081;-93
2022/07/08 02:00:03;;;;;;;15.05;6.63;;;24.20;99.90;;;;;;4867400;29;20041;-94
2022/07/08 02:02:37;;;;;;;18.60;6.45;;;24.10;99.90;;;;;;4883025;29;20029;-95
2022/07/08 02:05:04;;;;;;;17.52;6.90;;;24.10;99.90;;;;;;4882842;29;20476;-94
2022/07/08 02:07:31;;;;;;;16.52;7.53;;;24.10;99.90;;;;;;4867352;29;20407;-93
2022/07/08 02:09:58;;;;;;;17.92;8.02;;;24.00;99.90;;;;;;4867013;29;20029;-93
2022/07/08 02:12:25;;;;;;;11.68;6.50;;;23.90;99.90;;;;;;4867185;29;20033;-93
2022/07/08 02:14:55;;;;;;;14.38;7.63;;;23.90;99.90;;;;;;4866972;29;20116;-93
2022/07/08 02:17:23;;;;;;;14.82;7.95;;;23.90;99.90;;;;;;4882611;29;20029;-93
2022/07/08 02:19:51;;;;;;;17.92;7.63;;;23.80;99.90;;;;;;4867041;29;20120;-93
2022/07/08 02:22:19;;;;;;;15.45;8.20;;;23.70;99.90;;;;;;4866800;29;20037;-92
2022/07/08 02:24:47;;;;;;;15.63;7.55;;;23.50;99.90;;;;;;4867173;29;20033;-93
2022/07/08 02:27:14;;;;;;;14.25;7.97;;;23.50;99.90;;;;;;4882708;29;20108;-92
2022/07/08 02:29:40;;;;;;;17.05;7.97;;;23.50;99.90;;;;;;4866731;29;20025;-93
2022/07/08 02:32:07;;;;;;;14.07;7.13;;;23.50;99.90;;;;;;4866767;29;20029;-93
2022/07/08 02:34:34;;;;;;;17.67;7.55;;;23.50;99.90;;;;;;4866622;29;20126;-92
2022/07/08 02:37:00;;;;;;;19.95;7.93;;;23.40;99.90;;;;;;4866970;29;20472;-92
2022/07/08 02:39:27;;;;;;;16.80;7.28;;;23.40;99.90;;;;;;4866557;29;20416;-92
2022/07/08 09:39:47;;;;;;;11.65;4.07;;;30.20;99.90;;;;;;5898548;23;20036;-71
2022/07/08 09:42:14;;;;;;;8.38;3.50;;;29.40;99.90;;;;;;4854068;29;20068;-72
2022/07/08 09:44:42;;;;;;;4.28;2.67;;;28.00;99.90;;;;;;4887735;29;20477;-72
2022/07/08 09:47:13;;;;;;;3.63;2.70;;;27.30;99.90;;;;;;4871359;29;20037;-72
2022/07/08 09:49:45;;;;;;;5.63;2.72;;;27.10;99.90;;;;;;4889431;29;20025;-73
2022/07/08 09:52:20;;;;;;;5.60;3.10;;;27.70;99.90;;;;;;4896470;29;20025;-73
2022/07/08 09:55:03;;;;;;;5.57;2.72;;;27.20;99.90;;;;;;4894928;29;20549;-72
2022/07/08 09:57:31;;;;;;;4.32;2.42;;;27.00;99.90;;;;;;4898440;29;20028;-73
2022/07/08 09:59:58;;;;;;;3.30;2.80;;;26.70;99.90;;;;;;4896914;29;20024;-73
2022/07/08 10:02:27;;;;;;;7.00;3.22;;;26.60;99.90;;;;;;4899837;29;20033;-73
2022/07/08 10:04:56;;;;;;;5.05;3.20;;;26.80;99.90;;;;;;4901691;29;20025;-72
2022/07/08 10:07:23;;;;;;;2.85;2.20;;;27.20;99.90;;;;;;4901669;29;20142;-72
2022/07/08 10:09:49;;;;;;;5.78;3.10;;;27.50;99.90;;;;;;4884713;29;20077;-73
2022/07/08 10:12:17;;;;;;;5.57;2.50;;;27.80;99.90;;;;;;4895316;29;20119;-73
2022/07/08 10:14:46;;;;;;;5.20;2.95;;;27.60;99.90;;;;;;4889297;29;20029;-73
2022/07/08 10:17:17;;;;;;;4.35;3.08;;;27.90;99.90;;;;;;4891668;29;20111;-73
2022/07/08 10:19:46;;;;;;;4.35;2.70;;;28.20;99.90;;;;;;4891126;29;20108;-74
2022/07/08 10:22:15;;;;;;;5.75;2.85;;;28.20;99.90;;;;;;4889731;29;20036;-73
2022/07/08 10:24:43;;;;;;;4.93;2.53;;;28.00;99.90;;;;;;4890863;29;20410;-73
2022/07/08 10:27:10;;;;;;;2.95;2.17;;;27.70;99.90;;;;;;4891441;29;20044;-73
2022/07/08 10:29:39;;;;;;;2.90;2.20;;;27.60;99.90;;;;;;4888849;29;20032;-73
2022/07/08 10:32:22;;;;;;;2.60;1.75;;;26.80;99.90;;;;;;4889894;29;20032;-73
2022/07/08 10:35:08;;;;;;;4.07;1.50;;;26.30;99.90;;;;;;4891000;29;20035;-73
2022/07/08 10:37:59;;;;;;;1.35;1.25;;;26.10;99.90;;;;;;4887338;29;20065;-73
2022/07/08 10:40:41;;;;;;;1.48;1.20;;;26.20;99.90;;;;;;4888693;29;20124;-73
2022/07/08 10:43:28;;;;;;;2.22;1.25;;;26.30;99.90;;;;;;4890469;29;20390;-73
2022/07/08 10:46:10;;;;;;;1.60;1.02;;;26.40;99.90;;;;;;4891233;29;20063;-73
2022/07/08 10:48:40;;;;;;;1.67;1.33;;;26.80;99.90;;;;;;4886615;29;20478;-73
2022/07/08 12:54:52;;;;;;;2.15;1.20;;;26.60;99.90;;;;;;3649792;23;20329;-92
2022/07/08 13:36:46;;;;;;;1.92;1.70;;;26.70;99.90;;;;;;5207309;23;20065;-92
2022/07/08 13:53:18;;;;;;;2.28;1.60;;;27.60;99.90;;;;;;5123013;23;20102;-92
2022/07/08 15:25:43;;;;;;;3.75;1.15;;;26.10;99.90;;;;;;4935549;23;20019;-92
2022/07/08 15:31:25;;;;;;;5.32;1.67;;;25.50;99.90;;;;;;5197916;23;20051;-92
2022/07/08 15:34:09;;;;;;;4.60;1.98;;;25.10;99.90;;;;;;4898342;29;20033;-93
2022/07/08 15:36:56;;;;;;;3.83;1.33;;;24.90;99.90;;;;;;4891765;29;20029;-92
2022/07/08 15:39:23;;;;;;;7.95;4.53;;;24.70;99.90;;;;;;4879698;29;20040;-93
2022/07/08 15:41:50;;;;;;;12.00;5.13;;;24.40;99.90;;;;;;4878749;29;20096;-92
2022/07/08 15:44:19;;;;;;;3.90;1.20;;;23.80;99.90;;;;;;4857954;29;20037;-91
2022/07/08 15:46:46;;;;;;;3.15;1.55;;;23.20;99.90;;;;;;4862578;29;20029;-91
2022/07/08 15:49:13;;;;;;;7.35;1.98;;;22.40;99.90;;;;;;4878515;29;20061;-91
2022/07/08 15:51:45;;;;;;;8.52;1.90;;;22.00;99.90;;;;;;4872257;29;20127;-93
2022/07/08 15:54:18;;;;;;;3.35;1.42;;;21.70;99.90;;;;;;4865220;29;20116;-93
2022/07/08 15:57:29;;;;;;;5.95;1.73;;;21.60;99.90;;;;;;4970066;24;20055;-92
2022/07/08 16:02:47;;;;;;;2.70;1.35;;;21.80;99.90;;;;;;5024056;23;20091;-93
2022/07/08 16:05:15;;;;;;;3.97;1.15;;;21.80;99.90;;;;;;4812072;29;20041;-92
2022/07/08 16:07:42;;;;;;;2.80;1.20;;;21.90;99.90;;;;;;4820972;29;20408;-92
2022/07/08 16:10:09;;;;;;;3.40;0.93;;;22.00;99.90;;;;;;4837822;29;20026;-92
2022/07/08 16:12:36;;;;;;;1.42;0.80;;;22.10;99.90;;;;;;4825410;29;20026;-92
2022/07/08 16:15:05;;;;;;;3.42;0.80;;;22.20;99.90;;;;;;4823562;29;20038;-92
2022/07/08 16:17:32;;;;;;;1.50;0.70;;;22.30;99.90;;;;;;4828415;29;20046;-90
2022/07/08 16:19:59;;;;;;;2.67;0.95;;;22.40;99.90;;;;;;4829686;29;20026;-92
2022/07/08 16:22:29;;;;;;;1.85;0.80;;;22.50;99.90;;;;;;4833057;29;20075;-93
2022/07/08 16:24:56;;;;;;;3.42;1.20;;;22.50;99.90;;;;;;4838562;29;20027;-92
2022/07/08 16:27:24;;;;;;;3.33;0.90;;;22.50;99.90;;;;;;4802478;29;20042;-92
2022/07/08 16:29:51;;;;;;;1.23;0.80;;;22.50;99.90;;;;;;4805248;29;20071;-93
2022/07/08 16:49:04;;;;;;;3.03;1.33;;;22.80;99.90;;;;;;4853913;29;20046;-92
2022/07/08 16:51:31;;;;;;;4.47;1.20;;;22.80;99.90;;;;;;4830868;29;20048;-92
2022/07/08 16:53:58;;;;;;;4.75;1.40;;;22.90;99.90;;;;;;4845034;29;20024;-92
2022/07/08 16:56:25;;;;;;;2.95;1.08;;;23.00;99.90;;;;;;4864735;29;20548;-93
2022/07/08 16:59:00;;;;;;;3.13;1.33;;;23.10;99.90;;;;;;4850710;29;20048;-93
2022/07/08 17:01:26;;;;;;;7.30;1.90;;;23.30;99.90;;;;;;4862164;29;20112;-93
2022/07/08 17:03:59;;;;;;;5.28;1.90;;;23.40;99.90;;;;;;4866675;29;20036;-93
2022/07/08 17:06:30;;;;;;;4.47;1.35;;;23.50;99.90;;;;;;4851483;29;20069;-93
2022/07/08 17:09:00;;;;;;;8.93;1.90;;;23.40;99.90;;;;;;4854986;29;20057;-92
2022/07/08 17:11:30;;;;;;;4.25;1.92;;;23.30;99.90;;;;;;4852572;29;20025;-93
2022/07/08 17:19:22;;;;;;;4.40;2.03;;;23.20;99.90;;;;;;4999235;23;20052;-93
2022/07/08 17:21:50;;;;;;;1.70;1.60;;;23.20;99.90;;;;;;4867398;29;20029;-93
2022/07/08 17:24:27;;;;;;;5.80;2.15;;;23.20;99.90;;;;;;4867904;29;20491;-92
2022/07/08 18:31:40;;;;;;;6.55;2.35;;;21.90;99.90;;;;;;5383325;23;20056;-93
2022/07/08 18:34:07;;;;;;;3.75;2.42;;;21.80;99.90;;;;;;4871352;29;20031;-91
2022/07/08 18:36:51;;;;;;;6.07;2.20;;;21.70;99.90;;;;;;4870901;29;20033;-92
2022/07/08 18:39:19;;;;;;;3.67;2.17;;;21.60;99.90;;;;;;4854345;29;20037;-92
2022/07/08 18:41:46;;;;;;;3.85;2.90;;;21.50;99.90;;;;;;4856566;29;20056;-93
2022/07/08 18:44:16;;;;;;;4.20;3.10;;;21.40;99.90;;;;;;4866673;29;20093;-92
2022/07/08 18:46:45;;;;;;;6.85;3.47;;;21.40;99.90;;;;;;4847021;29;20037;-92
2022/07/08 18:49:17;;;;;;;4.25;3.08;;;21.20;99.90;;;;;;4875419;29;20029;-93
2022/07/08 18:51:45;;;;;;;5.13;3.00;;;21.10;99.90;;;;;;4861877;29;20066;-92
2022/07/08 18:54:12;;;;;;;5.95;2.95;;;21.10;99.90;;;;;;4847735;29;20045;-92
2022/07/08 18:56:42;;;;;;;5.85;2.97;;;21.10;99.90;;;;;;4841964;29;20405;-93
2022/07/08 18:59:12;;;;;;;4.78;3.15;;;21.10;99.90;;;;;;4844592;29;20045;-92
2022/07/08 19:01:44;;;;;;;5.85;3.60;;;21.20;99.90;;;;;;4843089;29;20042;-94
2022/07/08 19:04:24;;;;;;;3.92;3.28;;;21.20;99.90;;;;;;4847244;29;20042;-92
2022/07/08 19:06:57;;;;;;;4.32;2.72;;;21.20;99.90;;;;;;4875301;24;20037;-92
2022/07/08 19:09:25;;;;;;;3.15;2.53;;;21.00;99.90;;;;;;4900879;29;20033;-93
2022/07/08 19:11:58;;;;;;;3.88;2.58;;;21.00;99.90;;;;;;4892360;29;20048;-92
2022/07/08 19:14:45;;;;;;;3.83;2.50;;;20.90;99.90;;;;;;4883431;29;20040;-92
2022/07/08 19:21:31;;;;;;;2.55;2.35;;;20.80;99.90;;;;;;4822788;29;20084;-93
2022/07/08 19:27:14;;;;;;;2.83;2.40;;;20.60;99.90;;;;;;5110277;23;20045;-94
2022/07/08 19:36:28;;;;;;;3.42;2.97;;;20.40;99.90;;;;;;5226898;23;20027;-93
2022/07/08 19:38:56;;;;;;;3.25;2.55;;;20.50;99.90;;;;;;4998079;23;20088;-93
2022/07/08 19:44:40;;;;;;;4.22;2.50;;;20.30;99.90;;;;;;4996286;23;20499;-93
2022/07/08 19:47:34;;;;;;;3.47;2.72;;;20.30;99.90;;;;;;4794620;29;20039;-93
2022/07/08 19:50:11;;;;;;;4.25;3.08;;;20.30;99.90;;;;;;4781531;29;20053;-92
2022/07/08 19:53:04;;;;;;;4.50;2.85;;;20.30;99.90;;;;;;4807742;29;20037;-92
2022/07/08 19:55:31;;;;;;;6.70;2.85;;;20.30;99.90;;;;;;4803463;29;20042;-92
2022/07/08 19:57:58;;;;;;;9.02;8.02;;;20.20;99.90;;;;;;4802652;29;20066;-91
2022/07/08 20:01:05;;;;;;;;;;;;;;;;;;;;;
2022/07/08 20:20:39;;;;;;;7.53;4.03;;;20.30;99.90;;;;;;4894701;29;20066;-92
2022/07/08 20:23:11;;;;;;;8.43;4.45;;;20.30;99.90;;;;;;4871292;29;20041;-92
2022/07/08 20:25:39;;;;;;;6.50;4.30;;;20.30;99.90;;;;;;4863731;29;20036;-93
2022/07/08 20:28:29;;;;;;;7.10;4.65;;;20.20;99.90;;;;;;4843442;29;20121;-92
2022/07/08 20:30:59;;;;;;;8.80;4.97;;;20.10;99.90;;;;;;4879679;23;20053;-92
2022/07/08 20:33:26;;;;;;;8.82;4.68;;;20.10;99.90;;;;;;4844611;29;20034;-92
2022/07/08 20:36:01;;;;;;;7.47;5.25;;;20.10;99.90;;;;;;4852890;29;20348;-92
2022/07/08 20:38:29;;;;;;;8.50;5.18;;;20.00;99.90;;;;;;4841074;29;20466;-92
